Milo, Missouri
Current Conditions -  °F | °C
As of 7:35 PM on Thursday 27 Nov 2014 (Local Time) from KPTS Reporting Station
Clear Clear  
Wind Chill: 33°   Ceiling: Unl
Heat Index: 33°   Visibility: 10mi
Dew Point: 26°   Wind: 3mph
Humidity: 76%   Direction: 150°SSE
Pressure: 30.34"   Gusts: NA
Location:  37.76°N, 94.31°W
Report Text: KPTS 280135Z AUTO 15003KT 10SM CLR 01/M03 A3034 RMK AO2 T00051033
Loading
Personal Weather Stations






























Interactive Weather Map New forecast layout! Learn more

10-Day Weather Forecast

Advertisements
Track Severe Weather on mobile